createdAt,value
2023-11-07T00:00:20.268Z,83.97
2023-11-07T00:02:49.642Z,84.54
2023-11-07T00:05:17.743Z,84.23
2023-11-07T00:07:45.511Z,83.88
2023-11-07T00:10:14.616Z,84.34
2023-11-07T00:12:42.705Z,84.17
2023-11-07T00:15:11.370Z,84.17
2023-11-07T00:17:39.213Z,83.97
2023-11-07T00:20:09.401Z,84.07
2023-11-07T00:22:37.147Z,84.40
2023-11-07T00:25:05.183Z,84.16
2023-11-07T00:27:34.849Z,84.29
2023-11-07T00:30:02.690Z,84.17
2023-11-07T00:32:30.617Z,84.54
2023-11-07T00:34:59.090Z,84.37
2023-11-07T00:37:26.857Z,84.54
2023-11-07T00:39:54.505Z,84.03
2023-11-07T00:42:22.238Z,84.30
2023-11-07T00:44:51.240Z,84.36
2023-11-07T00:47:19.023Z,83.96
2023-11-07T00:49:46.682Z,83.52
2023-11-07T00:52:14.699Z,83.62
2023-11-07T00:54:42.338Z,83.73
2023-11-07T00:57:10.742Z,83.77
2023-11-07T00:59:38.485Z,84.24
2023-11-07T01:02:08.040Z,84.16
2023-11-07T01:04:35.763Z,84.36
2023-11-07T01:07:03.926Z,83.92
2023-11-07T01:09:31.601Z,83.88
2023-11-07T01:11:59.319Z,84.52
2023-11-07T01:14:27.078Z,84.42
2023-11-07T01:16:54.737Z,84.46
2023-11-07T01:19:24.176Z,83.81
2023-11-07T01:21:51.917Z,84.25
2023-11-07T01:24:19.702Z,83.64
2023-11-07T01:26:47.601Z,84.34
2023-11-07T01:29:16.364Z,84.50
2023-11-07T01:31:44.081Z,84.23
2023-11-07T01:34:11.891Z,84.00
2023-11-07T01:36:41.011Z,83.82
2023-11-07T01:39:09.416Z,83.62
2023-11-07T01:41:37.321Z,83.35
2023-11-07T01:44:05.040Z,83.38
2023-11-07T01:46:33.997Z,83.58
2023-11-07T01:49:01.763Z,83.39
2023-11-07T01:51:29.586Z,83.17
2023-11-07T01:53:59.058Z,83.33
2023-11-07T01:56:29.237Z,83.27
2023-11-07T01:58:59.716Z,83.09
2023-11-07T02:01:28.966Z,82.53
2023-11-07T02:03:57.306Z,82.53
2023-11-07T02:06:25.860Z,82.49
2023-11-07T02:08:53.657Z,82.64
2023-11-07T02:11:22.771Z,82.53
2023-11-07T02:13:50.794Z,82.57
2023-11-07T02:16:19.053Z,82.52
2023-11-07T02:18:46.913Z,82.43
2023-11-07T02:21:14.784Z,82.68
2023-11-07T02:23:44.012Z,82.84
2023-11-07T02:26:11.734Z,82.99
2023-11-07T02:28:40.038Z,82.64
2023-11-07T02:31:08.229Z,82.36
2023-11-07T02:33:38.745Z,82.23
2023-11-07T02:36:07.261Z,82.11
2023-11-07T02:38:35.006Z,82.17
2023-11-07T02:41:04.897Z,81.80
2023-11-07T02:43:32.625Z,81.99
2023-11-07T02:46:00.665Z,82.16
2023-11-07T02:48:28.443Z,81.92
2023-11-07T02:50:56.442Z,82.35
2023-11-07T02:53:24.182Z,82.11
2023-11-07T02:55:51.861Z,82.14
2023-11-07T02:58:20.917Z,82.36
2023-11-07T03:00:48.544Z,82.13
2023-11-07T03:03:16.862Z,82.34
2023-11-07T03:05:52.796Z,82.40
2023-11-07T03:08:20.576Z,82.16
2023-11-07T03:10:48.254Z,81.90
2023-11-07T03:13:15.906Z,82.23
2023-11-07T03:15:45.426Z,81.63
2023-11-07T03:18:13.252Z,81.63
2023-11-07T03:20:42.173Z,81.97
2023-11-07T03:23:11.243Z,81.85
2023-11-07T03:25:38.884Z,81.63
2023-11-07T03:28:06.551Z,82.13
2023-11-07T03:30:34.571Z,82.06
2023-11-07T03:33:02.331Z,82.12
2023-11-07T03:35:31.250Z,82.02
2023-11-07T03:37:59.093Z,82.25
2023-11-07T03:40:28.192Z,82.53
2023-11-07T03:42:55.838Z,81.79
2023-11-07T03:45:23.539Z,81.99
2023-11-07T03:47:51.276Z,81.82
2023-11-07T03:50:19.001Z,81.65
2023-11-07T03:52:46.627Z,81.35
2023-11-07T03:55:14.354Z,81.56
2023-11-07T03:57:43.433Z,81.36
2023-11-07T04:00:11.824Z,81.14
2023-11-07T04:02:39.848Z,81.56
2023-11-07T04:05:08.574Z,81.18
2023-11-07T04:07:36.290Z,81.33
2023-11-07T04:10:06.806Z,81.28
2023-11-07T04:12:34.642Z,80.96
2023-11-07T04:15:07.690Z,80.27
2023-11-07T04:17:36.011Z,80.84
2023-11-07T04:20:04.505Z,80.83
2023-11-07T04:22:32.280Z,81.02
2023-11-07T04:25:01.365Z,80.46
2023-11-07T04:27:29.022Z,80.87
2023-11-07T04:29:56.795Z,80.60
2023-11-07T04:32:25.906Z,80.80
2023-11-07T04:34:53.714Z,80.89
2023-11-07T04:37:21.455Z,80.75
2023-11-07T04:39:49.597Z,80.75
2023-11-07T04:42:17.342Z,80.72
2023-11-07T04:44:45.611Z,80.77
2023-11-07T04:47:13.748Z,80.61
2023-11-07T04:49:44.167Z,81.13
2023-11-07T04:52:12.182Z,81.00
2023-11-07T04:54:40.042Z,80.98
2023-11-07T04:57:08.208Z,80.99
2023-11-07T04:59:38.063Z,80.69
2023-11-07T05:02:07.457Z,80.52
2023-11-07T05:04:36.204Z,80.35
2023-11-07T05:07:06.063Z,80.36
2023-11-07T05:09:33.720Z,80.76
2023-11-07T05:12:03.824Z,80.32
2023-11-07T05:14:31.729Z,80.66
2023-11-07T05:16:59.899Z,80.29
2023-11-07T05:19:27.935Z,79.96
2023-11-07T05:21:56.156Z,80.62
2023-11-07T05:24:25.488Z,80.54
2023-11-07T05:26:53.435Z,79.73
2023-11-07T05:29:21.081Z,79.54
2023-11-07T05:31:49.014Z,79.72
2023-11-07T05:34:17.173Z,80.11
2023-11-07T05:36:44.911Z,80.06
2023-11-07T05:39:12.546Z,79.97
2023-11-07T05:41:41.731Z,79.80
2023-11-07T05:44:09.828Z,80.26
2023-11-07T05:46:37.626Z,80.04
2023-11-07T05:49:05.489Z,79.82
2023-11-07T05:51:33.403Z,79.82
2023-11-07T05:54:01.098Z,80.11
2023-11-07T05:56:28.940Z,79.68
2023-11-07T05:58:57.970Z,79.84
2023-11-07T06:01:25.836Z,80.11
2023-11-07T06:03:55.580Z,80.30
2023-11-07T06:06:25.436Z,80.18
2023-11-07T06:08:54.732Z,80.13
2023-11-07T06:11:22.816Z,80.42
2023-11-07T06:13:50.444Z,80.66
2023-11-07T06:16:20.000Z,80.47
2023-11-07T06:18:47.733Z,80.45
2023-11-07T06:21:15.860Z,80.59
2023-11-07T06:23:44.649Z,80.40
2023-11-07T06:26:12.408Z,80.49
2023-11-07T06:28:40.049Z,80.59
2023-11-07T06:31:08.079Z,81.29
2023-11-07T06:33:37.213Z,80.99
2023-11-07T06:36:05.210Z,80.86
2023-11-07T06:38:33.033Z,81.29
2023-11-07T06:41:00.717Z,80.95
2023-11-07T06:43:28.389Z,80.94
2023-11-07T06:45:56.963Z,80.83
2023-11-07T06:48:25.112Z,80.77
2023-11-07T06:50:55.555Z,80.86
2023-11-07T06:53:23.245Z,80.84
2023-11-07T06:55:50.975Z,80.59
2023-11-07T06:58:18.677Z,80.66
2023-11-07T07:00:46.329Z,80.88
2023-11-07T07:03:14.326Z,80.76
2023-11-07T07:05:42.509Z,80.97
2023-11-07T07:08:12.053Z,81.06
2023-11-07T07:10:41.334Z,81.07
2023-11-07T07:13:09.414Z,81.32
2023-11-07T07:15:38.166Z,81.00
2023-11-07T07:18:07.802Z,81.15
2023-11-07T07:20:37.857Z,81.21
2023-11-07T07:23:07.234Z,81.37
2023-11-07T07:25:37.503Z,81.83
2023-11-07T07:28:05.892Z,81.92
2023-11-07T07:30:33.914Z,82.16
2023-11-07T07:33:03.100Z,81.72
2023-11-07T07:35:34.156Z,81.78
2023-11-07T07:38:04.395Z,81.82
2023-11-07T07:40:32.849Z,81.82
2023-11-07T07:43:10.873Z,82.00
2023-11-07T07:45:40.643Z,81.90
2023-11-07T07:48:09.348Z,81.78
2023-11-07T07:50:42.608Z,81.15
2023-11-07T07:53:11.842Z,81.79
2023-11-07T07:55:45.147Z,81.37
2023-11-07T07:58:20.136Z,80.40
2023-11-07T08:00:51.145Z,80.60
2023-11-07T08:03:19.221Z,80.71
2023-11-07T08:05:47.303Z,79.89
2023-11-07T08:08:16.132Z,80.05
2023-11-07T08:10:48.820Z,80.42
2023-11-07T08:13:19.946Z,80.22
2023-11-07T08:15:51.176Z,79.96
2023-11-07T08:18:19.488Z,80.17
2023-11-07T08:20:47.370Z,80.12
2023-11-07T08:23:15.076Z,79.14
2023-11-07T08:25:42.781Z,78.76
2023-11-07T08:28:11.251Z,78.50
2023-11-07T08:30:45.597Z,79.49
2023-11-07T08:33:14.707Z,79.58
2023-11-07T08:35:42.715Z,79.55
2023-11-07T08:38:10.452Z,79.25
2023-11-07T08:40:38.229Z,79.97
2023-11-07T08:43:06.165Z,79.76
2023-11-07T08:45:34.854Z,79.22
2023-11-07T08:48:04.250Z,79.67
2023-11-07T08:50:33.882Z,79.44
2023-11-07T08:53:06.166Z,79.44
2023-11-07T08:55:34.448Z,78.98
2023-11-07T08:58:02.137Z,79.03
2023-11-07T09:00:30.709Z,79.35
2023-11-07T09:02:58.826Z,79.49
2023-11-07T09:05:28.852Z,79.12
2023-11-07T09:07:56.843Z,79.21
2023-11-07T09:10:24.546Z,79.16
2023-11-07T09:12:52.470Z,78.32
2023-11-07T09:15:22.685Z,78.61
2023-11-07T09:17:50.480Z,78.59
2023-11-07T09:20:18.275Z,77.85
2023-11-07T09:22:47.937Z,78.24
2023-11-07T09:25:15.580Z,78.16
2023-11-07T09:27:43.742Z,77.94
2023-11-07T09:30:13.246Z,77.48
2023-11-07T09:32:43.874Z,78.22
2023-11-07T09:35:12.358Z,78.28
2023-11-07T09:37:42.149Z,77.79
2023-11-07T09:40:21.885Z,78.27
2023-11-07T09:42:52.472Z,78.33
2023-11-07T09:45:22.347Z,78.58
2023-11-07T09:47:51.796Z,77.84
2023-11-07T09:50:21.378Z,77.96
2023-11-07T09:52:50.551Z,77.96
2023-11-07T09:55:19.782Z,78.08
2023-11-07T09:57:58.528Z,77.94
2023-11-07T10:00:35.036Z,78.19
2023-11-07T10:03:03.293Z,77.88
2023-11-07T10:05:33.097Z,78.12
2023-11-07T10:08:00.835Z,78.14
2023-11-07T10:10:29.836Z,77.27
2023-11-07T10:13:09.022Z,77.73
2023-11-07T10:15:37.196Z,78.33
2023-11-07T10:18:07.624Z,77.30
2023-11-07T10:20:36.447Z,78.45
2023-11-07T10:23:04.611Z,77.18
2023-11-07T10:25:35.085Z,76.56
2023-11-07T10:28:04.527Z,76.81
2023-11-07T10:30:36.754Z,76.64
2023-11-07T10:33:05.878Z,77.33
2023-11-07T10:35:33.836Z,76.87
2023-11-07T10:38:15.771Z,76.42
2023-11-07T10:40:44.938Z,76.89
2023-11-07T10:43:12.671Z,77.04
2023-11-07T10:45:42.549Z,77.21
2023-11-07T10:48:10.846Z,75.96
2023-11-07T10:50:40.064Z,74.70
2023-11-07T10:53:07.811Z,75.86
2023-11-07T10:55:37.289Z,74.96
2023-11-07T10:58:10.782Z,74.28
2023-11-07T11:00:39.480Z,74.41
2023-11-07T11:03:13.472Z,75.26
2023-11-07T11:05:45.322Z,74.63
2023-11-07T11:08:17.312Z,72.82
2023-11-07T11:10:45.814Z,72.51
2023-11-07T11:13:17.118Z,73.42
2023-11-07T11:15:47.597Z,72.82
2023-11-07T11:18:24.306Z,74.06
2023-11-07T11:21:03.351Z,72.90
2023-11-07T11:23:41.827Z,72.17
2023-11-07T11:26:25.293Z,73.08
2023-11-07T11:28:54.380Z,72.35
2023-11-07T11:31:23.178Z,70.50
2023-11-07T11:34:23.227Z,71.04
2023-11-07T11:36:55.225Z,70.45
2023-11-07T11:39:44.476Z,70.95
2023-11-07T11:42:12.886Z,70.13
2023-11-07T11:44:42.066Z,71.45
2023-11-07T11:47:12.957Z,70.70
2023-11-07T11:50:16.038Z,70.90
2023-11-07T11:52:43.794Z,69.80
2023-11-07T11:55:14.185Z,69.96
2023-11-07T11:58:25.446Z,69.69
2023-11-07T12:00:56.089Z,69.71
2023-11-07T12:03:25.297Z,69.21
2023-11-07T12:06:04.408Z,69.93
2023-11-07T12:08:40.598Z,67.98
2023-11-07T12:11:09.092Z,69.04
2023-11-07T12:13:36.833Z,69.39
2023-11-07T12:16:21.996Z,68.74
2023-11-07T12:18:52.423Z,67.82
2023-11-07T12:21:25.939Z,68.40
2023-11-07T12:23:54.663Z,69.32
2023-11-07T12:26:22.765Z,69.68
2023-11-07T12:28:52.364Z,70.09
2023-11-07T12:31:25.720Z,70.90
2023-11-07T12:33:54.089Z,70.19
2023-11-07T12:36:22.120Z,70.26
2023-11-07T12:38:50.438Z,69.72
2023-11-07T12:41:18.314Z,70.16
2023-11-07T12:43:47.495Z,71.04
2023-11-07T12:46:17.732Z,70.10
2023-11-07T12:48:47.144Z,70.34
2023-11-07T12:51:22.519Z,70.54
2023-11-07T12:53:51.477Z,69.26
2023-11-07T12:56:20.891Z,69.17
2023-11-07T12:58:49.496Z,71.17
2023-11-07T13:01:17.631Z,69.47
2023-11-07T13:03:47.026Z,68.78
2023-11-07T13:06:21.071Z,69.03
2023-11-07T13:08:49.045Z,67.69
2023-11-07T13:11:18.482Z,68.84
2023-11-07T13:13:48.242Z,68.32
2023-11-07T13:16:17.633Z,68.08
2023-11-07T13:18:47.796Z,68.48
2023-11-07T13:21:16.176Z,68.71
2023-11-07T13:23:44.168Z,69.60
2023-11-07T13:26:12.275Z,68.59
2023-11-07T13:28:42.138Z,68.44
2023-11-07T13:31:11.871Z,69.86
2023-11-07T13:33:39.790Z,69.65
2023-11-07T13:36:09.758Z,69.80
2023-11-07T13:38:37.816Z,69.48
2023-11-07T13:41:05.899Z,69.85
2023-11-07T13:43:33.710Z,70.05
2023-11-07T13:46:01.443Z,69.97
2023-11-07T13:48:32.328Z,70.37
2023-11-07T13:51:00.183Z,70.20
2023-11-07T13:53:30.255Z,70.38
2023-11-07T13:55:57.960Z,70.58
2023-11-07T13:58:25.665Z,69.69
2023-11-07T14:00:53.577Z,68.98
2023-11-07T14:03:22.449Z,69.22
2023-11-07T14:05:50.232Z,69.45
2023-11-07T14:08:17.943Z,69.22
2023-11-07T14:10:48.171Z,69.71
2023-11-07T14:13:15.916Z,71.79
2023-11-07T14:15:43.568Z,69.70
2023-11-07T14:18:16.907Z,69.97
2023-11-07T14:20:52.899Z,68.95
2023-11-07T14:23:20.825Z,70.86
2023-11-07T14:25:49.941Z,69.06
2023-11-07T14:28:17.737Z,71.15
2023-11-07T14:30:45.918Z,72.00
2023-11-07T14:33:14.497Z,71.06
2023-11-07T14:35:42.646Z,71.57
2023-11-07T14:38:10.561Z,70.97
2023-11-07T14:40:38.455Z,72.18
2023-11-07T14:43:14.664Z,70.83
2023-11-07T14:45:45.186Z,70.46
2023-11-07T14:48:15.525Z,71.31
2023-11-07T14:50:44.448Z,70.79
2023-11-07T14:53:15.942Z,71.87
2023-11-07T14:55:44.183Z,71.77
2023-11-07T14:58:16.987Z,71.42
2023-11-07T15:00:44.859Z,71.99
2023-11-07T15:03:12.902Z,72.66
2023-11-07T15:05:43.193Z,72.68
2023-11-07T15:08:11.686Z,72.87
2023-11-07T15:10:39.823Z,73.06
2023-11-07T15:13:09.082Z,73.09
2023-11-07T15:15:38.241Z,73.24
2023-11-07T15:18:06.646Z,72.88
2023-11-07T15:20:34.744Z,73.41
2023-11-07T15:23:03.743Z,73.10
2023-11-07T15:25:34.550Z,73.34
2023-11-07T15:28:02.947Z,73.77
2023-11-07T15:30:31.725Z,72.49
2023-11-07T15:33:02.337Z,72.34
2023-11-07T15:35:36.088Z,73.01
2023-11-07T15:38:07.229Z,72.70
2023-11-07T15:40:34.309Z,73.04
2023-11-07T15:43:02.072Z,73.15
2023-11-07T15:45:32.330Z,73.30
2023-11-07T15:48:01.679Z,73.59
2023-11-07T15:50:29.517Z,74.18
2023-11-07T15:53:07.559Z,74.35
2023-11-07T15:55:38.307Z,74.37
2023-11-07T15:58:06.716Z,74.82
2023-11-07T16:00:35.448Z,75.40
2023-11-07T16:03:06.313Z,75.77
2023-11-07T16:05:36.651Z,75.47
2023-11-07T16:08:07.473Z,75.44
2023-11-07T16:10:36.156Z,75.23
2023-11-07T16:13:04.776Z,75.54
2023-11-07T16:15:33.695Z,75.64
2023-11-07T16:18:01.750Z,76.02
2023-11-07T16:20:30.877Z,75.77
2023-11-07T16:22:58.569Z,75.70
2023-11-07T16:25:26.385Z,76.27
2023-11-07T16:27:54.861Z,76.29
2023-11-07T16:30:22.962Z,76.10
2023-11-07T16:32:50.975Z,76.64
2023-11-07T16:35:18.816Z,76.52
2023-11-07T16:37:49.447Z,75.76
2023-11-07T16:40:18.763Z,75.20
2023-11-07T16:42:48.235Z,75.36
2023-11-07T16:45:16.605Z,74.91
2023-11-07T16:47:44.882Z,75.34
2023-11-07T16:50:14.029Z,75.02
2023-11-07T16:52:41.956Z,75.64
2023-11-07T16:55:14.623Z,74.91
2023-11-07T16:57:43.598Z,74.98
2023-11-07T17:00:12.934Z,75.63
2023-11-07T17:02:42.025Z,75.67
2023-11-07T17:05:10.543Z,75.20
2023-11-07T17:07:38.336Z,75.55
2023-11-07T17:10:07.901Z,75.75
2023-11-07T17:12:37.716Z,75.89
2023-11-07T17:15:08.162Z,76.15
2023-11-07T17:17:35.954Z,76.53
2023-11-07T17:20:06.717Z,76.33
2023-11-07T17:22:35.983Z,76.13
2023-11-07T17:25:05.625Z,76.90
2023-11-07T17:27:33.900Z,76.95
2023-11-07T17:30:03.155Z,76.77
2023-11-07T17:32:31.015Z,76.72
2023-11-07T17:35:04.429Z,76.75
2023-11-07T17:37:32.134Z,76.47
2023-11-07T17:40:00.356Z,76.86
2023-11-07T17:42:28.191Z,76.82
2023-11-07T17:44:56.027Z,77.02
2023-11-07T17:47:26.706Z,77.24
2023-11-07T17:49:54.554Z,77.55
2023-11-07T17:52:22.262Z,77.72
2023-11-07T17:54:50.917Z,77.82
2023-11-07T17:57:19.451Z,78.24
2023-11-07T17:59:52.785Z,78.59
2023-11-07T18:02:21.472Z,78.32
2023-11-07T18:04:51.395Z,78.22
2023-11-07T18:07:19.802Z,78.75
2023-11-07T18:09:49.885Z,79.06
2023-11-07T18:12:18.997Z,78.77
2023-11-07T18:14:46.782Z,79.13
2023-11-07T18:17:14.449Z,79.05
2023-11-07T18:19:42.187Z,78.92
2023-11-07T18:22:11.415Z,79.16
2023-11-07T18:24:39.204Z,79.10
2023-11-07T18:27:07.360Z,79.40
2023-11-07T18:29:35.411Z,79.30
2023-11-07T18:32:07.637Z,79.18
2023-11-07T18:34:35.462Z,79.63
2023-11-07T18:37:05.053Z,79.64
2023-11-07T18:39:36.823Z,79.33
2023-11-07T18:42:05.540Z,79.39
2023-11-07T18:44:35.668Z,80.15
2023-11-07T18:47:04.099Z,80.30
2023-11-07T18:49:32.699Z,79.79
2023-11-07T18:52:00.636Z,80.23
2023-11-07T18:54:29.072Z,79.85
2023-11-07T18:56:59.240Z,80.24
2023-11-07T18:59:34.323Z,79.99
2023-11-07T19:02:06.101Z,79.99
2023-11-07T19:04:34.203Z,80.16
2023-11-07T19:07:01.965Z,79.87
2023-11-07T19:09:29.807Z,79.92
2023-11-07T19:12:02.117Z,79.59
2023-11-07T19:14:30.205Z,80.08
2023-11-07T19:16:58.013Z,80.24
2023-11-07T19:19:28.166Z,80.70
2023-11-07T19:21:57.014Z,80.52
2023-11-07T19:24:24.871Z,80.79
2023-11-07T19:26:52.859Z,80.38
2023-11-07T19:29:21.991Z,80.80
2023-11-07T19:31:50.524Z,80.62
2023-11-07T19:34:20.568Z,80.78
2023-11-07T19:36:49.732Z,81.11
2023-11-07T19:39:18.615Z,80.71
2023-11-07T19:41:47.142Z,81.29
2023-11-07T19:44:16.668Z,81.38
2023-11-07T19:46:45.915Z,81.59
2023-11-07T19:49:13.721Z,81.75
2023-11-07T19:51:42.120Z,81.40
2023-11-07T19:54:10.164Z,81.73
2023-11-07T19:56:38.872Z,81.40
2023-11-07T19:59:08.308Z,81.53
2023-11-07T20:01:36.656Z,81.83
2023-11-07T20:04:06.172Z,81.78
2023-11-07T20:06:34.047Z,81.50
2023-11-07T20:09:01.832Z,81.82
2023-11-07T20:11:30.345Z,81.81
2023-11-07T20:13:58.258Z,81.84
2023-11-07T20:16:25.979Z,81.90
2023-11-07T20:18:54.377Z,81.51
2023-11-07T20:21:23.543Z,81.94
2023-11-07T20:23:51.464Z,82.18
2023-11-07T20:26:19.765Z,81.67
2023-11-07T20:28:50.578Z,82.19
2023-11-07T20:31:18.645Z,81.97
2023-11-07T20:36:16.624Z,81.74
2023-11-07T20:38:46.418Z,81.77
2023-11-07T20:41:16.750Z,82.25
2023-11-07T20:43:44.447Z,81.97
2023-11-07T20:46:27.241Z,82.00
2023-11-07T20:49:02.624Z,82.04
2023-11-07T20:51:32.392Z,82.44
2023-11-07T20:54:01.774Z,82.23
2023-11-07T20:56:30.692Z,82.31
2023-11-07T20:58:58.851Z,82.33
2023-11-07T21:01:27.878Z,82.47
2023-11-07T21:03:57.385Z,82.61
2023-11-07T21:06:25.834Z,82.31
2023-11-07T21:08:54.291Z,82.66
2023-11-07T21:11:23.358Z,82.44
2023-11-07T21:13:52.353Z,82.58
2023-11-07T21:16:20.123Z,82.44
2023-11-07T21:18:49.049Z,82.59
2023-11-07T21:21:17.686Z,82.94
2023-11-07T21:23:45.552Z,82.87
2023-11-07T21:26:14.515Z,82.81
2023-11-07T21:28:43.617Z,82.59
2023-11-07T21:31:11.363Z,82.82
2023-11-07T21:33:39.913Z,82.71
2023-11-07T21:36:08.002Z,82.90
2023-11-07T21:38:35.863Z,82.93
2023-11-07T21:41:03.588Z,83.23
2023-11-07T21:43:31.317Z,83.09
2023-11-07T21:46:01.388Z,82.88
2023-11-07T21:48:30.004Z,83.10
2023-11-07T21:50:57.815Z,83.05
2023-11-07T21:53:25.954Z,82.84
2023-11-07T21:55:54.540Z,82.71
2023-11-07T21:58:22.553Z,82.60
2023-11-07T22:00:50.215Z,82.93
2023-11-07T22:03:19.863Z,82.68
2023-11-07T22:05:47.589Z,82.43
2023-11-07T22:08:15.340Z,82.03
2023-11-07T22:10:43.052Z,81.92
2023-11-07T22:13:10.757Z,82.11
2023-11-07T22:15:38.768Z,82.46
2023-11-07T22:18:06.729Z,82.42
2023-11-07T22:20:38.202Z,82.03
2023-11-07T22:23:06.086Z,82.04
2023-11-07T22:25:33.814Z,81.94
2023-11-07T22:28:01.526Z,81.91
2023-11-07T22:30:29.204Z,81.80
2023-11-07T22:32:56.929Z,81.88
2023-11-07T22:35:24.644Z,81.99
2023-11-07T22:37:54.163Z,82.09
2023-11-07T22:40:22.659Z,81.55
2023-11-07T22:42:50.487Z,81.84
2023-11-07T22:45:19.284Z,81.71
2023-11-07T22:47:47.356Z,81.85
2023-11-07T22:50:15.085Z,81.97
2023-11-07T22:52:43.173Z,81.62
2023-11-07T22:55:12.989Z,81.70
2023-11-07T22:57:40.810Z,81.30
2023-11-07T23:00:11.892Z,81.75
2023-11-07T23:02:40.581Z,81.64
2023-11-07T23:05:09.032Z,81.79
2023-11-07T23:07:36.695Z,81.80
2023-11-07T23:10:05.082Z,81.62
2023-11-07T23:12:34.196Z,81.57
2023-11-07T23:15:01.932Z,81.63
2023-11-07T23:17:29.774Z,81.40
2023-11-07T23:19:57.467Z,81.31
2023-11-07T23:22:25.150Z,81.61
2023-11-07T23:24:53.642Z,82.05
2023-11-07T23:27:21.394Z,81.53
2023-11-07T23:29:55.472Z,81.53
2023-11-07T23:32:23.166Z,81.42
2023-11-07T23:34:51.038Z,81.29
2023-11-07T23:37:21.669Z,81.31
2023-11-07T23:39:49.683Z,81.48
2023-11-07T23:42:18.258Z,81.18
2023-11-07T23:44:45.968Z,81.71
2023-11-07T23:47:15.340Z,81.36
2023-11-07T23:49:42.032Z,81.41
2023-11-07T23:52:11.920Z,81.65
2023-11-07T23:54:39.656Z,81.40
2023-11-07T23:57:07.468Z,81.66
2023-11-07T23:59:35.590Z,81.06
